Arthur, Arkansas
Current Conditions -  °F | °C
As of 3:53 AM on Wednesday 26 Nov 2014 (Local Time) from KRUE Reporting Station
Clear Clear  
Wind Chill: 28°   Ceiling: Unl
Heat Index: 28°   Visibility: 10mi
Dew Point: 25°   Wind: 0mph
Humidity: 88%   Direction: NA
Pressure: 30.06"   Gusts: NA
Location:  35.2722°N, 92.6766°W
Report Text: KRUE 260953Z AUTO 00000KT 10SM CLR M02/M04 A3006 RMK AO2 SLP178 T10221039
Loading
Personal Weather Stations






























Interactive Weather Map New forecast layout! Learn more

10-Day Weather Forecast

Advertisements
Track Severe Weather on mobile